Terminal Aerodrome Forecast
Issued by NWS

Home | Current Version | Previous Version | Graphics & Text | Print | Product List | Glossary On
Versions: 1 2 3 4 5 6 7 8 9 10 11 12 13 14 15 16 17 18 19 20 21 22 23
527
FTUS42 KMHX 181205 AAA
TAFPGV
TAF AMD
KPGV 181205Z 1812/1912 03008KT P6SM SCT250
      TEMPO 1812/1813 1/4SM FG VV002
     FM190400 08004KT P6SM BKN120
     FM191000 VRB03KT P6SM BKN030
      AMD LTD TO CLD VIS AND WIND=

USA.gov is the U.S. government's official web portal to all federal, state and local government web resources and services.